Terminal Aerodrome Forecast
Issued by NWS

Home | Current Version | Previous Version | Text Only | Print | Product List | Glossary Off
Versions: 1 2 3 4 5 6 7 8 9 10 11 12 13 14 15 16

000
FTUS43 KICT 260320 AAA
TAFHUT
TAF AMD
KHUT 260320Z 2603/2624 01014KT P6SM -RA OVC015
     FM260600 36012KT P6SM BKN070
     FM261000 36010KT P6SM SCT250
     FM262000 23007KT P6SM SKC=

USA.gov is the U.S. government's official web portal to all federal, state and local government web resources and services.